aviador You're here:

KMKO Decoded Metar

MUSKOGEE in OK, USA
Report Time2018-01-18 20:53:00
UTC Time2018-01-18 21:40:00
Flight Rules vfr VFR
Wind190° at 12 kt
W.Decomp.*RWY 18: 12.0 kt HW 0.8 kt RCW
RWY 22: 9.7 kt HW 7.1 kt LCW
RWY 13: 7.1 kt HW 9.7 kt RCW
W.Rank190° ranks 8
Current wind is above 190° avg. (9.7)
Visibility9999 m
Phenomena:N/A
Clouds:N/A
Expected CloudBase > 8,000 ft AGL from Temp-Dew spread
CeilingNone
Temp07°C (ISA -7)
Dew Point-13°C (23% RH)
AAT-0.6°C
QNH1026 hPa
Density Alt-614 ft
Elevation607 ft
Report Wrong Elevation
Raw Report
KMKO 182053Z AUTO 19012KT 10SM CLR 07/M13 A3031 RMK AO2 SLP269
T00721128 56042=

Extra information for KMKO:More info

Metar Taf Metar & Taf Last 4 Metars F.Rules Stats Wind Profile Meteogram Temp Stats Airport Information Weather charts Add Link Nearby VenuesMetar ALERT Operation Metar Decoded Social comments

AIRNAV info for KMKO